createdAt,value
2022-09-07T00:01:11.617Z,59.01
2022-09-07T00:03:39.573Z,59.04
2022-09-07T00:06:11.263Z,58.67
2022-09-07T00:08:41.380Z,58.45
2022-09-07T00:11:17.572Z,58.40
2022-09-07T00:13:48.671Z,58.41
2022-09-07T00:16:21.557Z,58.93
2022-09-07T00:18:50.122Z,58.77
2022-09-07T00:21:18.457Z,58.86
2022-09-07T00:23:49.942Z,58.71
2022-09-07T00:26:23.152Z,58.75
2022-09-07T00:28:52.194Z,59.17
2022-09-07T00:31:23.357Z,59.28
2022-09-07T00:33:54.015Z,59.04
2022-09-07T00:36:22.717Z,58.85
2022-09-07T00:38:51.604Z,58.72
2022-09-07T00:41:22.208Z,58.61
2022-09-07T00:43:54.434Z,58.66
2022-09-07T00:46:26.863Z,58.57
2022-09-07T00:49:08.192Z,58.45
2022-09-07T00:51:56.006Z,58.69
2022-09-07T00:54:32.134Z,58.41
2022-09-07T00:57:00.470Z,58.53
2022-09-07T00:59:46.138Z,58.51
2022-09-07T01:02:17.267Z,58.54
2022-09-07T01:04:51.818Z,58.77
2022-09-07T01:07:20.219Z,58.68
2022-09-07T01:09:48.318Z,58.74
2022-09-07T01:12:16.547Z,58.95
2022-09-07T01:14:50.708Z,58.71
2022-09-07T01:17:31.841Z,58.85
2022-09-07T01:20:43.947Z,59.25
2022-09-07T01:24:01.355Z,59.38
2022-09-07T01:26:57.308Z,59.04
2022-09-07T01:29:39.278Z,59.78
2022-09-07T01:32:16.255Z,58.97
2022-09-07T01:34:52.419Z,58.56
2022-09-07T01:37:43.655Z,58.57
2022-09-07T01:40:19.383Z,58.57
2022-09-07T01:43:00.687Z,58.58
2022-09-07T01:45:34.973Z,58.32
2022-09-07T01:48:09.148Z,58.01
2022-09-07T01:51:05.326Z,57.72
2022-09-07T01:53:42.055Z,57.75
2022-09-07T01:56:23.372Z,58.01
2022-09-07T01:59:04.632Z,58.06
2022-09-07T02:01:58.035Z,57.93
2022-09-07T02:04:35.938Z,58.03
2022-09-07T02:07:21.363Z,58.05
2022-09-07T02:10:02.608Z,57.70
2022-09-07T02:12:56.515Z,57.75
2022-09-07T02:15:39.039Z,57.87
2022-09-07T02:18:10.667Z,58.42
2022-09-07T02:20:42.442Z,58.31
2022-09-07T02:23:19.183Z,58.47
2022-09-07T02:25:55.155Z,58.33
2022-09-07T02:28:29.373Z,58.22
2022-09-07T02:30:57.457Z,58.27
2022-09-07T02:33:26.233Z,58.21
2022-09-07T02:35:55.129Z,58.42
2022-09-07T02:38:23.833Z,58.60
2022-09-07T02:40:57.885Z,58.45
2022-09-07T02:43:28.200Z,58.42
2022-09-07T02:46:22.601Z,58.68
2022-09-07T02:48:59.543Z,59.34
2022-09-07T02:51:47.396Z,59.14
2022-09-07T02:55:06.770Z,58.92
2022-09-07T02:58:16.262Z,58.93
2022-09-07T03:01:08.041Z,59.01
2022-09-07T03:04:25.902Z,59.09
2022-09-07T03:07:27.868Z,58.93
2022-09-07T03:09:58.284Z,58.86
2022-09-07T03:12:41.840Z,58.95
2022-09-07T03:15:13.583Z,58.92
2022-09-07T03:17:43.208Z,59.07
2022-09-07T03:20:11.146Z,59.00
2022-09-07T03:22:39.695Z,58.94
2022-09-07T03:25:08.482Z,59.18
2022-09-07T03:27:36.905Z,59.03
2022-09-07T03:30:07.098Z,59.31
2022-09-07T03:32:37.554Z,59.01
2022-09-07T03:35:08.063Z,59.17
2022-09-07T03:37:37.739Z,59.32
2022-09-07T03:40:09.212Z,59.26
2022-09-07T03:42:37.788Z,59.53
2022-09-07T03:45:07.391Z,59.61
2022-09-07T03:47:37.197Z,59.41
2022-09-07T03:50:07.136Z,59.82
2022-09-07T03:52:37.087Z,59.73
2022-09-07T03:55:05.528Z,60.01
2022-09-07T03:57:34.004Z,59.71
2022-09-07T04:00:04.635Z,59.78
2022-09-07T04:02:40.515Z,60.08
2022-09-07T04:05:08.987Z,59.80
2022-09-07T04:07:37.080Z,59.83
2022-09-07T04:10:05.318Z,60.04
2022-09-07T04:12:33.291Z,60.51
2022-09-07T04:15:01.162Z,60.59
2022-09-07T04:17:29.067Z,60.48
2022-09-07T04:19:57.290Z,60.63
2022-09-07T04:22:25.174Z,60.96
2022-09-07T04:24:53.039Z,61.20
2022-09-07T04:27:20.958Z,61.18
2022-09-07T04:29:48.862Z,61.19
2022-09-07T04:32:16.854Z,61.36
2022-09-07T04:34:44.758Z,61.18
2022-09-07T04:37:12.645Z,61.24
2022-09-07T04:39:40.584Z,61.33
2022-09-07T04:42:08.523Z,61.57
2022-09-07T04:44:36.398Z,61.27
2022-09-07T04:47:04.360Z,60.97
2022-09-07T04:49:32.337Z,60.98
2022-09-07T04:52:00.370Z,60.83
2022-09-07T04:54:28.552Z,60.88
2022-09-07T04:56:56.519Z,60.72
2022-09-07T04:59:25.655Z,60.83
2022-09-07T05:01:53.588Z,60.97
2022-09-07T05:04:21.607Z,60.58
2022-09-07T05:06:49.601Z,60.13
2022-09-07T05:09:17.511Z,60.06
2022-09-07T05:11:45.476Z,59.83
2022-09-07T05:14:13.338Z,59.67
2022-09-07T05:16:41.294Z,59.58
2022-09-07T05:19:12.423Z,59.88
2022-09-07T05:21:40.378Z,59.68
2022-09-07T05:24:09.459Z,59.38
2022-09-07T05:26:39.971Z,58.60
2022-09-07T05:31:56.768Z,57.71
2022-09-07T05:36:56.841Z,57.35
2022-09-07T05:39:25.332Z,57.31
2022-09-07T05:41:53.989Z,57.12
2022-09-07T05:47:11.141Z,56.22
2022-09-07T05:49:39.039Z,56.49
2022-09-07T05:52:07.078Z,56.09
2022-09-07T05:54:35.105Z,55.68
2022-09-07T05:57:03.702Z,55.56
2022-09-07T05:59:31.728Z,55.79
2022-09-07T06:02:00.153Z,55.72
2022-09-07T06:04:28.250Z,57.36
2022-09-07T06:07:18.099Z,56.36
2022-09-07T06:12:32.011Z,55.38
2022-09-07T06:15:01.466Z,54.63
2022-09-07T06:17:31.112Z,54.28
2022-09-07T06:19:59.174Z,54.10
2022-09-07T06:22:30.706Z,53.95
2022-09-07T06:24:59.519Z,54.42
2022-09-07T06:27:27.954Z,53.83
2022-09-07T06:29:56.203Z,53.81
2022-09-07T06:35:13.206Z,52.60
2022-09-07T06:37:41.659Z,52.86
2022-09-07T06:40:12.063Z,52.97
2022-09-07T06:42:40.622Z,52.19
2022-09-07T06:45:11.236Z,51.77
2022-09-07T06:47:40.266Z,52.01
2022-09-07T06:50:10.062Z,51.70
2022-09-07T06:55:28.279Z,51.32
2022-09-07T06:57:56.528Z,51.59
2022-09-07T07:00:25.061Z,51.59
2022-09-07T07:02:53.244Z,51.01
2022-09-07T07:05:21.230Z,50.11
2022-09-07T07:07:49.160Z,49.75
2022-09-07T07:10:19.751Z,49.92
2022-09-07T07:12:53.068Z,50.22
2022-09-07T07:15:21.274Z,50.09
2022-09-07T07:17:56.129Z,48.95
2022-09-07T07:20:27.431Z,48.71
2022-09-07T07:22:55.307Z,48.62
2022-09-07T07:25:23.662Z,49.32
2022-09-07T07:27:51.727Z,49.06
2022-09-07T07:30:20.798Z,49.14
2022-09-07T07:32:48.682Z,49.01
2022-09-07T07:35:16.994Z,48.56
2022-09-07T07:37:44.925Z,47.91
2022-09-07T07:42:46.241Z,47.03
2022-09-07T07:48:03.097Z,47.52
2022-09-07T07:50:31.994Z,47.63
2022-09-07T07:55:49.022Z,45.96
2022-09-07T07:58:17.185Z,45.99
2022-09-07T08:01:00.697Z,45.89
2022-09-07T08:03:29.353Z,46.18
2022-09-07T08:06:04.886Z,46.11
2022-09-07T08:08:32.842Z,45.36
2022-09-07T08:11:08.217Z,45.10
2022-09-07T08:13:38.034Z,45.61
2022-09-07T08:16:06.621Z,45.50
2022-09-07T08:18:35.837Z,46.08
2022-09-07T08:21:11.370Z,45.45
2022-09-07T08:23:41.306Z,44.99
2022-09-07T08:26:09.778Z,43.97
2022-09-07T08:28:41.060Z,43.81
2022-09-07T08:31:14.639Z,43.02
2022-09-07T08:33:43.090Z,42.84
2022-09-07T08:36:19.141Z,42.50
2022-09-07T08:38:47.995Z,41.95
2022-09-07T08:41:47.157Z,42.06
2022-09-07T08:44:38.426Z,41.27
2022-09-07T08:47:44.359Z,41.15
2022-09-07T08:50:25.850Z,41.03
2022-09-07T08:53:20.948Z,41.59
2022-09-07T08:56:11.588Z,40.63
2022-09-07T08:58:53.866Z,40.45
2022-09-07T09:01:37.031Z,40.73
2022-09-07T09:04:20.180Z,40.55
2022-09-07T09:07:17.273Z,39.31
2022-09-07T09:10:19.724Z,39.96
2022-09-07T09:13:18.126Z,39.77
2022-09-07T09:16:05.472Z,40.18
2022-09-07T09:19:16.882Z,39.50
2022-09-07T09:21:45.700Z,39.27
2022-09-07T09:24:19.566Z,39.24
2022-09-07T09:26:54.275Z,39.04
2022-09-07T09:29:23.840Z,38.40
2022-09-07T09:31:53.459Z,38.67
2022-09-07T09:34:23.980Z,38.37
2022-09-07T09:36:56.719Z,38.22
2022-09-07T09:39:33.728Z,38.13
2022-09-07T09:42:22.339Z,38.24
2022-09-07T09:44:50.799Z,37.77
2022-09-07T09:47:38.318Z,38.03
2022-09-07T09:53:34.141Z,37.95
2022-09-07T09:56:04.090Z,38.28
2022-09-07T10:01:35.943Z,36.85
2022-09-07T10:04:24.633Z,37.54
2022-09-07T10:07:12.075Z,37.31
2022-09-07T10:09:49.064Z,36.57
2022-09-07T10:12:32.017Z,36.65
2022-09-07T10:15:03.479Z,36.51
2022-09-07T10:17:48.378Z,36.19
2022-09-07T10:20:16.298Z,36.59
2022-09-07T10:22:57.014Z,36.49
2022-09-07T10:25:40.484Z,35.99
2022-09-07T10:28:15.075Z,36.29
2022-09-07T10:31:11.169Z,36.47
2022-09-07T10:37:16.787Z,35.14
2022-09-07T10:40:20.750Z,35.57
2022-09-07T10:43:21.409Z,35.63
2022-09-07T10:46:14.932Z,34.90
2022-09-07T10:49:15.477Z,34.94
2022-09-07T10:52:07.572Z,35.27
2022-09-07T10:55:07.640Z,35.57
2022-09-07T10:57:49.131Z,34.42
2022-09-07T11:00:20.369Z,34.51
2022-09-07T11:03:29.993Z,34.44
2022-09-07T11:06:10.855Z,34.20
2022-09-07T11:12:03.022Z,34.56
2022-09-07T11:14:50.752Z,35.04
2022-09-07T11:17:24.725Z,35.00
2022-09-07T11:20:44.551Z,34.68
2022-09-07T11:23:29.111Z,35.11
2022-09-07T11:26:39.695Z,33.81
2022-09-07T11:29:32.679Z,34.01
2022-09-07T11:32:12.081Z,33.74
2022-09-07T11:34:46.770Z,33.62
2022-09-07T11:37:57.505Z,32.95
2022-09-07T11:40:35.266Z,33.48
2022-09-07T11:43:20.554Z,33.33
2022-09-07T11:45:55.442Z,32.46
2022-09-07T11:48:42.475Z,33.24
2022-09-07T11:52:05.644Z,32.56
2022-09-07T11:54:45.819Z,31.70
2022-09-07T11:58:00.143Z,32.47
2022-09-07T12:00:46.079Z,32.54
2022-09-07T12:04:26.166Z,32.67
2022-09-07T12:07:35.108Z,32.47
2022-09-07T12:10:26.640Z,32.91
2022-09-07T12:13:10.444Z,32.53
2022-09-07T12:16:09.768Z,32.80
2022-09-07T12:19:15.094Z,32.26
2022-09-07T12:22:05.427Z,32.31
2022-09-07T12:24:48.527Z,31.07
2022-09-07T12:27:22.492Z,30.07
2022-09-07T12:30:01.674Z,31.78
2022-09-07T12:32:56.976Z,32.41
2022-09-07T12:35:31.555Z,31.78
2022-09-07T12:38:00.499Z,31.62
2022-09-07T12:40:28.695Z,31.82
2022-09-07T12:43:14.703Z,31.94
2022-09-07T12:45:42.615Z,31.64
2022-09-07T12:48:16.229Z,31.87
2022-09-07T12:50:56.096Z,32.01
2022-09-07T12:54:14.535Z,32.65
2022-09-07T12:57:34.929Z,32.27
2022-09-07T13:00:24.306Z,32.36
2022-09-07T13:03:50.101Z,32.18
2022-09-07T13:09:41.675Z,32.09
2022-09-07T13:15:48.899Z,31.42
2022-09-07T13:18:26.645Z,31.80
2022-09-07T13:21:18.402Z,32.02
2022-09-07T13:27:27.522Z,31.74
2022-09-07T13:30:05.158Z,31.55
2022-09-07T13:35:24.667Z,31.19
2022-09-07T13:38:02.102Z,30.95
2022-09-07T13:40:34.938Z,31.69
2022-09-07T13:43:04.467Z,32.38
2022-09-07T13:45:53.593Z,32.42
2022-09-07T13:48:49.024Z,32.34
2022-09-07T13:51:31.175Z,32.81
2022-09-07T13:54:08.452Z,33.18
2022-09-07T13:57:06.605Z,33.47
2022-09-07T13:59:35.430Z,32.56
2022-09-07T14:02:03.655Z,32.68
2022-09-07T14:04:41.823Z,32.85
2022-09-07T14:07:16.511Z,32.45
2022-09-07T14:09:44.467Z,32.64
2022-09-07T14:12:16.485Z,32.87
2022-09-07T14:14:44.587Z,33.08
2022-09-07T14:17:19.327Z,32.84
2022-09-07T14:19:51.508Z,33.04
2022-09-07T14:22:30.902Z,33.61
2022-09-07T14:25:01.798Z,33.02
2022-09-07T14:27:37.778Z,32.85
2022-09-07T14:30:33.390Z,33.40
2022-09-07T14:33:17.121Z,33.41
2022-09-07T14:35:45.049Z,33.35
2022-09-07T14:41:20.854Z,33.58
2022-09-07T14:43:58.283Z,33.49
2022-09-07T14:46:30.782Z,33.28
2022-09-07T14:49:03.203Z,33.29
2022-09-07T14:51:36.846Z,32.84
2022-09-07T14:54:07.903Z,32.95
2022-09-07T14:56:41.990Z,33.60
2022-09-07T14:59:38.826Z,33.74
2022-09-07T15:02:18.786Z,33.69
2022-09-07T15:04:49.542Z,33.90
2022-09-07T15:07:47.352Z,34.00
2022-09-07T15:10:21.148Z,34.00
2022-09-07T15:12:51.776Z,34.04
2022-09-07T15:15:35.351Z,34.05
2022-09-07T15:18:26.748Z,33.92
2022-09-07T15:20:54.756Z,33.77
2022-09-07T15:23:22.617Z,33.89
2022-09-07T15:25:53.687Z,33.96
2022-09-07T15:34:16.216Z,34.64
2022-09-07T15:36:52.493Z,35.15
2022-09-07T15:39:30.278Z,35.44
2022-09-07T15:42:00.517Z,35.62
2022-09-07T15:44:46.934Z,36.09
2022-09-07T15:50:05.553Z,35.63
2022-09-07T15:52:33.803Z,35.78
2022-09-07T15:55:01.745Z,35.96
2022-09-07T16:00:19.714Z,36.48
2022-09-07T16:03:06.100Z,36.11
2022-09-07T16:05:34.989Z,35.69
2022-09-07T16:10:55.143Z,36.13
2022-09-07T16:13:24.321Z,36.40
2022-09-07T16:15:52.487Z,36.07
2022-09-07T16:18:20.378Z,36.41
2022-09-07T16:20:52.730Z,36.92
2022-09-07T16:23:21.277Z,36.99
2022-09-07T16:25:58.505Z,37.15
2022-09-07T16:28:27.280Z,36.84
2022-09-07T16:30:56.286Z,36.89
2022-09-07T16:33:34.350Z,37.57
2022-09-07T16:36:10.163Z,36.98
2022-09-07T16:38:47.052Z,37.04
2022-09-07T16:41:20.483Z,37.20
2022-09-07T16:43:49.698Z,37.36
2022-09-07T16:46:24.693Z,37.42
2022-09-07T16:48:53.460Z,37.61
2022-09-07T16:51:28.575Z,37.81
2022-09-07T16:54:07.368Z,37.82
2022-09-07T16:56:39.042Z,37.83
2022-09-07T16:59:11.222Z,37.93
2022-09-07T17:01:39.783Z,38.11
2022-09-07T17:04:17.250Z,38.23
2022-09-07T17:06:48.151Z,38.58
2022-09-07T17:09:19.072Z,38.50
2022-09-07T17:11:50.332Z,38.97
2022-09-07T17:14:26.190Z,39.07
2022-09-07T17:16:59.023Z,39.89
2022-09-07T17:19:34.727Z,39.74
2022-09-07T17:22:03.908Z,39.53
2022-09-07T17:24:32.611Z,39.62
2022-09-07T17:27:01.484Z,39.86
2022-09-07T17:29:37.216Z,40.02
2022-09-07T17:34:55.349Z,40.63
2022-09-07T17:37:23.263Z,40.64
2022-09-07T17:39:51.852Z,40.74
2022-09-07T17:42:20.070Z,41.14
2022-09-07T17:44:52.789Z,41.19
2022-09-07T17:47:21.346Z,41.32
2022-09-07T17:49:49.169Z,41.49
2022-09-07T17:52:17.140Z,41.82
2022-09-07T17:54:45.097Z,42.00
2022-09-07T17:57:12.986Z,42.52
2022-09-07T18:02:37.956Z,42.27
2022-09-07T18:05:07.463Z,42.65
2022-09-07T18:07:35.477Z,42.61
2022-09-07T18:10:03.641Z,42.85
2022-09-07T18:12:32.765Z,43.04
2022-09-07T18:15:01.142Z,43.08
2022-09-07T18:17:28.998Z,42.66
2022-09-07T18:19:57.325Z,42.66
2022-09-07T18:22:25.310Z,42.55
2022-09-07T18:24:53.263Z,42.51
2022-09-07T18:27:21.422Z,42.52
2022-09-07T18:29:49.266Z,42.55
2022-09-07T18:32:17.757Z,42.61
2022-09-07T18:34:50.226Z,42.44
2022-09-07T18:37:19.510Z,42.48
2022-09-07T18:39:48.686Z,42.43
2022-09-07T18:42:17.089Z,42.52
2022-09-07T18:47:34.951Z,42.45
2022-09-07T18:50:03.373Z,42.53
2022-09-07T18:55:19.303Z,42.42
2022-09-07T18:57:47.383Z,42.32
2022-09-07T19:00:15.405Z,42.31
2022-09-07T19:02:43.292Z,42.21
2022-09-07T19:07:59.769Z,42.61
2022-09-07T19:10:28.277Z,42.49
2022-09-07T19:12:59.035Z,42.60
2022-09-07T19:15:27.111Z,42.76
2022-09-07T19:17:55.036Z,42.76
2022-09-07T19:20:22.937Z,42.81
2022-09-07T19:22:50.939Z,42.80
2022-09-07T19:25:19.411Z,42.94
2022-09-07T19:27:47.422Z,43.11
2022-09-07T19:30:17.279Z,43.19
2022-09-07T19:32:45.174Z,43.02
2022-09-07T19:35:13.038Z,42.80
2022-09-07T19:37:40.999Z,42.93
2022-09-07T19:40:14.804Z,42.87
2022-09-07T19:42:46.571Z,42.82
2022-09-07T19:45:15.468Z,42.88
2022-09-07T19:47:43.412Z,43.08
2022-09-07T19:50:11.385Z,42.92
2022-09-07T19:52:39.220Z,43.06
2022-09-07T19:55:07.991Z,42.94
2022-09-07T19:57:35.927Z,43.15
2022-09-07T20:00:04.992Z,43.32
2022-09-07T20:02:40.256Z,43.48
2022-09-07T20:05:08.458Z,43.52
2022-09-07T20:07:36.331Z,43.53
2022-09-07T20:10:04.643Z,43.77
2022-09-07T20:12:32.654Z,43.71
2022-09-07T20:15:00.578Z,43.71
2022-09-07T20:17:33.054Z,43.79
2022-09-07T20:20:04.552Z,43.89
2022-09-07T20:22:32.453Z,43.91
2022-09-07T20:25:00.251Z,43.89
2022-09-07T20:27:28.135Z,43.96
2022-09-07T20:29:56.102Z,44.15
2022-09-07T20:32:24.472Z,44.11
2022-09-07T20:34:53.087Z,44.24
2022-09-07T20:37:20.968Z,44.28
2022-09-07T20:39:48.888Z,44.26
2022-09-07T20:42:16.748Z,44.52
2022-09-07T20:44:45.129Z,44.69
2022-09-07T20:47:13.073Z,44.77
2022-09-07T20:49:40.918Z,45.01
2022-09-07T20:52:08.735Z,44.96
2022-09-07T20:54:38.689Z,44.89
2022-09-07T20:57:06.526Z,44.78
2022-09-07T20:59:34.407Z,45.01
2022-09-07T21:02:02.340Z,44.92
2022-09-07T21:04:30.398Z,44.99
2022-09-07T21:06:58.255Z,44.93
2022-09-07T21:09:26.125Z,44.95
2022-09-07T21:11:57.167Z,44.92
2022-09-07T21:14:25.239Z,45.20
2022-09-07T21:16:53.232Z,45.34
2022-09-07T21:19:21.220Z,45.33
2022-09-07T21:21:49.352Z,45.46
2022-09-07T21:24:20.753Z,45.58
2022-09-07T21:26:50.353Z,45.72
2022-09-07T21:29:22.836Z,46.01
2022-09-07T21:31:54.407Z,46.25
2022-09-07T21:34:22.858Z,46.23
2022-09-07T21:36:50.911Z,46.32
2022-09-07T21:39:19.298Z,46.29
2022-09-07T21:41:47.102Z,46.50
2022-09-07T21:44:16.602Z,46.60
2022-09-07T21:46:44.654Z,46.59
2022-09-07T21:49:12.745Z,46.78
2022-09-07T21:51:40.586Z,46.75
2022-09-07T21:54:08.750Z,46.71
2022-09-07T21:56:36.600Z,46.65
2022-09-07T21:59:06.505Z,46.67
2022-09-07T22:01:34.437Z,46.68
2022-09-07T22:04:06.935Z,46.76
2022-09-07T22:06:35.848Z,46.54
2022-09-07T22:09:05.053Z,46.76
2022-09-07T22:11:33.099Z,46.74
2022-09-07T22:14:03.725Z,47.06
2022-09-07T22:16:34.485Z,47.05
2022-09-07T22:19:03.013Z,47.18
2022-09-07T22:21:31.190Z,47.12
2022-09-07T22:24:05.238Z,47.23
2022-09-07T22:26:39.938Z,47.27
2022-09-07T22:29:11.654Z,47.01
2022-09-07T22:31:41.018Z,47.07
2022-09-07T22:34:10.294Z,47.40
2022-09-07T22:36:43.934Z,47.30
2022-09-07T22:39:16.055Z,47.43
2022-09-07T22:41:45.838Z,47.38
2022-09-07T22:44:16.795Z,47.75
2022-09-07T22:46:47.129Z,47.75
2022-09-07T22:49:17.350Z,47.61
2022-09-07T22:51:45.839Z,47.58
2022-09-07T22:54:13.947Z,47.62
2022-09-07T22:56:41.912Z,47.60
2022-09-07T22:59:10.448Z,47.55
2022-09-07T23:01:38.907Z,47.55
2022-09-07T23:04:08.578Z,47.65
2022-09-07T23:06:40.051Z,47.68
2022-09-07T23:09:14.635Z,47.57
2022-09-07T23:11:44.125Z,47.54
2022-09-07T23:14:24.674Z,47.68
2022-09-07T23:16:52.513Z,47.51
2022-09-07T23:19:20.982Z,47.66
2022-09-07T23:21:49.272Z,47.65
2022-09-07T23:24:19.244Z,47.77
2022-09-07T23:26:48.088Z,47.82
2022-09-07T23:29:16.459Z,47.86
2022-09-07T23:31:46.323Z,47.91
2022-09-07T23:34:14.214Z,47.80
2022-09-07T23:36:42.092Z,47.79
2022-09-07T23:39:09.981Z,47.81
2022-09-07T23:41:37.787Z,47.81
2022-09-07T23:44:06.002Z,47.93
2022-09-07T23:46:34.671Z,48.03
2022-09-07T23:49:02.607Z,47.89
2022-09-07T23:51:30.423Z,47.81
2022-09-07T23:53:58.268Z,47.92
2022-09-07T23:56:26.373Z,48.00
2022-09-07T23:58:54.506Z,47.87
